createdAt,value
2018-09-03T00:00:48.619Z,78.25
2018-09-03T00:01:48.607Z,78.06
2018-09-03T00:02:48.591Z,78.11
2018-09-03T00:03:48.577Z,78.11
2018-09-03T00:04:48.566Z,78.06
2018-09-03T00:05:48.555Z,78.06
2018-09-03T00:06:48.537Z,78.34
2018-09-03T00:07:48.525Z,78.63
2018-09-03T00:08:48.512Z,78.69
2018-09-03T00:09:48.497Z,78.63
2018-09-03T00:10:48.483Z,78.59
2018-09-03T00:11:48.472Z,78.31
2018-09-03T00:12:48.458Z,78.50
2018-09-03T00:13:48.446Z,78.34
2018-09-03T00:14:48.429Z,78.40
2018-09-03T00:15:48.421Z,78.69
2018-09-03T00:16:48.403Z,78.79
2018-09-03T00:17:48.398Z,78.31
2018-09-03T00:18:48.376Z,78.69
2018-09-03T00:19:48.362Z,78.11
2018-09-03T00:20:48.348Z,78.31
2018-09-03T00:21:48.334Z,78.59
2018-09-03T00:22:48.325Z,78.50
2018-09-03T00:23:48.307Z,78.79
2018-09-03T00:24:48.293Z,79.17
2018-09-03T00:25:48.284Z,78.88
2018-09-03T00:26:48.267Z,79.08
2018-09-03T00:27:48.253Z,78.59
2018-09-03T00:28:48.242Z,78.79
2018-09-03T00:29:48.227Z,79.27
2018-09-03T00:30:48.213Z,78.79
2018-09-03T00:31:48.204Z,78.79
2018-09-03T00:32:48.185Z,79.46
2018-09-03T00:33:48.173Z,79.17
2018-09-03T00:34:48.160Z,79.08
2018-09-03T00:35:48.145Z,78.98
2018-09-03T00:36:48.134Z,79.17
2018-09-03T00:37:48.123Z,79.08
2018-09-03T00:38:48.108Z,79.08
2018-09-03T00:39:48.090Z,79.66
2018-09-03T00:40:48.076Z,79.75
2018-09-03T00:41:48.065Z,79.66
2018-09-03T00:42:48.050Z,79.46
2018-09-03T00:43:48.040Z,79.66
2018-09-03T00:44:48.024Z,79.75
2018-09-03T00:45:48.010Z,79.56
2018-09-03T00:46:48.003Z,79.66
2018-09-03T00:47:47.986Z,79.94
2018-09-03T00:48:47.976Z,79.85
2018-09-03T00:49:47.956Z,79.85
2018-09-03T00:50:47.942Z,80.23
2018-09-03T00:51:47.929Z,79.94
2018-09-03T00:52:47.914Z,79.46
2018-09-03T00:53:47.900Z,79.75
2018-09-03T00:54:47.887Z,79.46
2018-09-03T00:55:47.926Z,80.23
2018-09-03T00:56:47.864Z,80.23
2018-09-03T00:57:47.847Z,80.43
2018-09-03T00:58:47.835Z,80.33
2018-09-03T00:59:47.819Z,80.14
2018-09-03T01:00:47.807Z,80.62
2018-09-03T01:01:47.792Z,80.62
2018-09-03T01:02:47.779Z,80.33
2018-09-03T01:03:47.765Z,80.52
2018-09-03T01:04:47.751Z,80.14
2018-09-03T01:05:47.737Z,80.43
2018-09-03T01:06:47.725Z,80.33
2018-09-03T01:07:47.711Z,80.14
2018-09-03T01:08:47.706Z,80.23
2018-09-03T01:09:47.682Z,80.43
2018-09-03T01:10:47.670Z,80.14
2018-09-03T01:11:47.655Z,80.14
2018-09-03T01:12:47.641Z,80.43
2018-09-03T01:13:47.629Z,80.14
2018-09-03T01:14:47.614Z,80.52
2018-09-03T01:15:47.606Z,80.04
2018-09-03T01:16:47.596Z,80.14
2018-09-03T01:17:47.571Z,80.23
2018-09-03T01:18:47.558Z,80.43
2018-09-03T01:19:47.547Z,79.94
2018-09-03T01:20:47.531Z,79.94
2018-09-03T01:21:47.518Z,79.94
2018-09-03T01:22:47.503Z,79.94
2018-09-03T01:23:47.493Z,79.75
2018-09-03T01:24:47.477Z,80.14
2018-09-03T01:25:47.462Z,79.85
2018-09-03T01:26:47.449Z,79.94
2018-09-03T01:27:47.435Z,79.75
2018-09-03T01:28:47.423Z,80.04
2018-09-03T01:29:47.409Z,79.75
2018-09-03T01:30:47.394Z,79.66
2018-09-03T01:31:47.382Z,79.46
2018-09-03T01:32:47.366Z,80.43
2018-09-03T01:33:47.354Z,79.94
2018-09-03T01:34:47.339Z,80.14
2018-09-03T01:35:47.324Z,79.66
2018-09-03T01:36:47.312Z,80.04
2018-09-03T01:37:47.301Z,80.33
2018-09-03T01:38:47.287Z,79.85
2018-09-03T01:39:47.272Z,79.75
2018-09-03T01:40:47.258Z,79.66
2018-09-03T01:41:47.242Z,79.85
2018-09-03T01:42:47.230Z,80.04
2018-09-03T01:43:47.215Z,79.94
2018-09-03T01:44:47.203Z,80.23
2018-09-03T01:45:47.190Z,79.56
2018-09-03T01:46:47.176Z,79.85
2018-09-03T01:47:47.162Z,79.94
2018-09-03T01:48:47.146Z,79.56
2018-09-03T01:49:47.133Z,79.75
2018-09-03T01:50:47.120Z,79.46
2018-09-03T01:51:47.104Z,79.85
2018-09-03T01:52:47.092Z,79.94
2018-09-03T01:53:47.078Z,79.94
2018-09-03T01:54:47.065Z,79.94
2018-09-03T01:55:47.050Z,79.85
2018-09-03T01:56:47.040Z,79.94
2018-09-03T01:57:47.022Z,79.85
2018-09-03T01:58:47.008Z,79.94
2018-09-03T01:59:46.996Z,80.33
2018-09-03T02:00:46.982Z,80.62
2018-09-03T02:01:46.967Z,80.62
2018-09-03T02:02:46.956Z,80.04
2018-09-03T02:03:46.940Z,80.52
2018-09-03T02:04:46.925Z,79.85
2018-09-03T02:05:46.912Z,80.43
2018-09-03T02:06:46.900Z,80.43
2018-09-03T02:07:46.883Z,80.62
2018-09-03T02:08:46.871Z,80.48
2018-09-03T02:09:46.856Z,80.52
2018-09-03T02:10:46.849Z,80.52
2018-09-03T02:11:46.829Z,80.52
2018-09-03T02:12:46.819Z,80.52
2018-09-03T02:13:46.802Z,80.43
2018-09-03T02:14:46.789Z,80.52
2018-09-03T02:15:46.773Z,80.33
2018-09-03T02:16:46.761Z,80.62
2018-09-03T02:17:46.748Z,80.43
2018-09-03T02:18:46.736Z,80.71
2018-09-03T02:19:46.723Z,80.62
2018-09-03T02:20:46.707Z,80.71
2018-09-03T02:21:46.692Z,80.52
2018-09-03T02:22:46.680Z,80.62
2018-09-03T02:23:46.667Z,80.81
2018-09-03T02:24:46.650Z,80.52
2018-09-03T02:25:46.637Z,80.43
2018-09-03T02:26:46.623Z,80.71
2018-09-03T02:27:46.612Z,80.43
2018-09-03T02:28:46.595Z,80.52
2018-09-03T02:29:46.581Z,80.71
2018-09-03T02:30:46.571Z,80.81
2018-09-03T02:31:46.553Z,80.62
2018-09-03T02:32:46.540Z,80.62
2018-09-03T02:33:46.529Z,80.23
2018-09-03T02:34:46.516Z,80.71
2018-09-03T02:35:46.500Z,81.01
2018-09-03T02:36:46.489Z,80.71
2018-09-03T02:37:46.475Z,80.58
2018-09-03T02:38:46.461Z,80.58
2018-09-03T02:39:46.444Z,80.81
2018-09-03T02:40:46.434Z,80.68
2018-09-03T02:41:46.415Z,80.71
2018-09-03T02:42:46.407Z,80.77
2018-09-03T02:43:46.387Z,80.96
2018-09-03T02:44:46.378Z,80.68
2018-09-03T02:45:46.362Z,80.77
2018-09-03T02:46:46.348Z,80.58
2018-09-03T02:47:46.337Z,80.77
2018-09-03T02:48:46.322Z,80.68
2018-09-03T02:49:46.314Z,80.68
2018-09-03T02:50:46.292Z,81.06
2018-09-03T02:51:46.289Z,80.96
2018-09-03T02:52:46.271Z,81.25
2018-09-03T02:53:46.255Z,81.06
2018-09-03T02:54:46.238Z,81.35
2018-09-03T02:55:46.228Z,81.35
2018-09-03T02:56:46.210Z,81.35
2018-09-03T02:57:46.196Z,81.06
2018-09-03T02:58:46.182Z,80.77
2018-09-03T02:59:46.168Z,81.16
2018-09-03T03:00:46.155Z,80.77
2018-09-03T03:01:46.149Z,80.96
2018-09-03T03:02:46.128Z,81.73
2018-09-03T03:03:46.112Z,82.21
2018-09-03T03:04:46.100Z,81.73
2018-09-03T03:05:46.088Z,81.93
2018-09-03T03:06:46.071Z,81.73
2018-09-03T03:07:46.058Z,81.63
2018-09-03T03:08:46.044Z,82.02
2018-09-03T03:09:46.029Z,82.02
2018-09-03T03:10:46.016Z,82.31
2018-09-03T03:11:46.057Z,82.31
2018-09-03T03:12:45.987Z,82.37
2018-09-03T03:13:45.974Z,82.70
2018-09-03T03:14:45.960Z,82.37
2018-09-03T03:15:45.946Z,81.98
2018-09-03T03:16:45.933Z,82.56
2018-09-03T03:17:45.932Z,82.08
2018-09-03T03:18:45.907Z,82.94
2018-09-03T03:19:45.889Z,82.37
2018-09-03T03:20:45.875Z,82.94
2018-09-03T03:21:45.862Z,83.04
2018-09-03T03:22:45.857Z,82.75
2018-09-03T03:23:45.837Z,82.75
2018-09-03T03:24:45.821Z,82.85
2018-09-03T03:25:45.811Z,82.65
2018-09-03T03:26:45.793Z,82.65
2018-09-03T03:27:45.777Z,83.14
2018-09-03T03:28:45.767Z,82.85
2018-09-03T03:29:45.749Z,83.14
2018-09-03T03:30:45.737Z,82.85
2018-09-03T03:31:45.721Z,83.62
2018-09-03T03:32:45.707Z,82.75
2018-09-03T03:33:45.693Z,83.33
2018-09-03T03:34:45.679Z,83.42
2018-09-03T03:35:45.665Z,83.62
2018-09-03T03:36:45.657Z,84.10
2018-09-03T03:37:45.639Z,83.33
2018-09-03T03:38:45.629Z,84.10
2018-09-03T03:39:45.610Z,84.29
2018-09-03T03:40:45.595Z,83.91
2018-09-03T03:41:45.581Z,84.10
2018-09-03T03:42:45.566Z,84.00
2018-09-03T03:43:45.553Z,83.86
2018-09-03T03:44:45.539Z,84.00
2018-09-03T03:45:45.525Z,84.10
2018-09-03T03:46:45.511Z,84.19
2018-09-03T03:47:45.501Z,84.16
2018-09-03T03:48:45.544Z,84.25
2018-09-03T03:49:45.469Z,83.96
2018-09-03T03:50:45.454Z,84.44
2018-09-03T03:51:45.442Z,84.44
2018-09-03T03:52:45.426Z,84.34
2018-09-03T03:53:45.413Z,83.96
2018-09-03T03:54:45.398Z,83.77
2018-09-03T03:55:45.382Z,84.73
2018-09-03T03:56:45.369Z,84.63
2018-09-03T03:57:45.356Z,84.44
2018-09-03T03:58:45.341Z,84.54
2018-09-03T03:59:45.328Z,85.31
2018-09-03T04:00:45.313Z,85.11
2018-09-03T04:01:45.299Z,85.11
2018-09-03T04:02:45.285Z,85.40
2018-09-03T04:03:45.277Z,85.31
2018-09-03T04:04:45.255Z,85.50
2018-09-03T04:05:45.242Z,85.07
2018-09-03T04:06:45.228Z,85.55
2018-09-03T04:07:45.213Z,85.65
2018-09-03T04:08:45.199Z,85.46
2018-09-03T04:09:45.185Z,86.22
2018-09-03T04:10:45.169Z,85.75
2018-09-03T04:11:45.157Z,85.84
2018-09-03T04:12:45.141Z,86.42
2018-09-03T04:13:45.124Z,85.94
2018-09-03T04:14:45.117Z,85.55
2018-09-03T04:15:45.103Z,85.94
2018-09-03T04:16:45.084Z,86.04
2018-09-03T04:17:45.075Z,85.84
2018-09-03T04:18:45.056Z,86.13
2018-09-03T04:19:45.045Z,86.04
2018-09-03T04:20:45.027Z,86.04
2018-09-03T04:21:45.017Z,86.32
2018-09-03T04:22:45.000Z,86.04
2018-09-03T04:23:44.984Z,86.22
2018-09-03T04:24:44.970Z,86.04
2018-09-03T04:25:44.959Z,86.52
2018-09-03T04:26:44.942Z,86.22
2018-09-03T04:27:44.926Z,86.80
2018-09-03T04:28:44.919Z,86.80
2018-09-03T04:29:44.898Z,87.19
2018-09-03T04:30:44.890Z,86.90
2018-09-03T04:31:44.869Z,87.09
2018-09-03T04:32:44.854Z,87.09
2018-09-03T04:33:44.846Z,87.09
2018-09-03T04:34:44.828Z,86.90
2018-09-03T04:35:44.811Z,87.48
2018-09-03T04:36:44.800Z,87.43
2018-09-03T04:37:44.782Z,87.57
2018-09-03T04:38:44.842Z,87.76
2018-09-03T04:39:44.756Z,87.57
2018-09-03T04:40:44.740Z,87.53
2018-09-03T04:41:44.724Z,87.48
2018-09-03T04:42:44.711Z,88.20
2018-09-03T04:43:44.702Z,87.86
2018-09-03T04:44:44.680Z,87.72
2018-09-03T04:45:44.668Z,87.92
2018-09-03T04:46:44.650Z,87.92
2018-09-03T04:47:44.637Z,88.01
2018-09-03T04:48:44.623Z,88.10
2018-09-03T04:49:44.613Z,88.30
2018-09-03T04:50:44.599Z,88.49
2018-09-03T04:51:44.578Z,88.68
2018-09-03T04:52:44.569Z,88.49
2018-09-03T07:14:26.753Z,64.88
2018-09-03T07:15:26.742Z,64.30
2018-09-03T07:16:26.732Z,63.91
2018-09-03T07:17:26.720Z,62.75
2018-09-03T07:18:26.710Z,62.26
2018-09-03T07:19:26.699Z,63.53
2018-09-03T07:20:26.689Z,63.49
2018-09-03T07:21:26.678Z,64.24
2018-09-03T07:22:26.669Z,64.04
2018-09-03T07:23:26.656Z,64.24
2018-09-03T07:24:26.648Z,65.20
2018-09-03T07:25:26.639Z,63.88
2018-09-03T07:26:26.627Z,64.07
2018-09-03T07:27:26.616Z,63.40
2018-09-03T07:28:26.608Z,62.26
2018-09-03T07:29:26.601Z,61.78
2018-09-03T07:30:26.587Z,61.88
2018-09-03T07:31:26.580Z,63.33
2018-09-03T07:32:26.570Z,63.69
2018-09-03T07:33:26.563Z,64.56
2018-09-03T07:34:26.549Z,64.14
2018-09-03T07:35:26.557Z,65.59
2018-09-03T07:36:26.532Z,64.82
2018-09-03T07:37:26.522Z,65.40
2018-09-03T07:38:26.517Z,64.69
2018-09-03T07:39:26.503Z,65.17
2018-09-03T07:40:26.500Z,65.27
2018-09-03T07:41:26.487Z,65.85
2018-09-03T07:42:26.484Z,66.34
2018-09-03T07:43:26.470Z,66.05
2018-09-03T07:44:26.458Z,65.69
2018-09-03T07:45:26.448Z,64.24
2018-09-03T07:46:26.443Z,65.17
2018-09-03T07:47:26.435Z,65.47
2018-09-03T07:48:26.424Z,65.66
2018-09-03T07:49:26.418Z,65.66
2018-09-03T07:50:26.410Z,66.43
2018-09-03T07:51:26.394Z,65.75
2018-09-03T07:52:26.386Z,65.95
2018-09-03T07:53:26.375Z,65.95
2018-09-03T07:54:26.373Z,65.37
2018-09-03T07:55:26.359Z,65.17
2018-09-03T07:56:26.350Z,66.14
2018-09-03T07:57:26.526Z,65.89
2018-09-03T07:58:26.332Z,65.89
2018-09-03T07:59:26.322Z,65.59
2018-09-03T08:00:26.315Z,63.78
2018-09-03T08:01:26.308Z,63.98
2018-09-03T08:02:26.295Z,63.40
2018-09-03T08:03:26.290Z,62.72
2018-09-03T08:04:26.277Z,64.01
2018-09-03T08:05:26.268Z,62.13
2018-09-03T08:06:26.262Z,60.41
2018-09-03T08:07:26.312Z,58.69
2018-09-03T08:08:26.250Z,59.05
2018-09-03T08:09:26.236Z,56.35
2018-09-03T08:10:26.226Z,54.52
2018-09-03T08:11:26.220Z,54.94
2018-09-03T08:12:26.212Z,54.21
2018-09-03T08:13:26.204Z,53.46
2018-09-03T08:14:26.196Z,52.39
2018-09-03T08:15:26.189Z,51.37
2018-09-03T08:16:26.182Z,49.82
2018-09-03T08:17:26.176Z,49.14
2018-09-03T08:18:26.167Z,47.89
2018-09-03T08:19:26.161Z,48.19
2018-09-03T08:20:26.155Z,48.09
2018-09-03T08:21:26.148Z,48.31
2018-09-03T08:22:26.144Z,48.02
2018-09-03T08:23:26.136Z,47.36
2018-09-03T08:24:26.137Z,47.55
2018-09-03T08:25:26.125Z,45.89
2018-09-03T08:26:26.117Z,45.42
2018-09-03T08:27:26.113Z,44.93
2018-09-03T08:28:26.109Z,44.83
2018-09-03T08:29:26.099Z,44.73
2018-09-03T08:30:26.096Z,44.76
2018-09-03T08:31:26.091Z,45.07
2018-09-03T08:32:26.087Z,44.12
2018-09-03T08:33:26.079Z,42.94
2018-09-03T08:34:26.072Z,43.43
2018-09-03T08:35:26.107Z,43.02
2018-09-03T08:36:26.063Z,43.70
2018-09-03T08:37:26.059Z,44.07
2018-09-03T08:38:26.052Z,43.68
2018-09-03T08:39:26.047Z,44.19
2018-09-03T08:40:26.044Z,44.29
2018-09-03T08:41:26.039Z,43.88
2018-09-03T08:42:26.032Z,43.88
2018-09-03T08:43:26.027Z,44.54
2018-09-03T08:44:26.024Z,44.27
2018-09-03T08:45:26.040Z,44.15
2018-09-03T08:46:26.015Z,44.17
2018-09-03T08:47:26.014Z,43.80
2018-09-03T08:48:26.006Z,42.43
2018-09-03T08:49:26.003Z,43.70
2018-09-03T08:50:26.025Z,43.29
2018-09-03T08:51:25.992Z,43.88
2018-09-03T08:52:25.989Z,44.09
2018-09-03T08:53:25.993Z,44.09
2018-09-03T08:54:25.979Z,42.72
2018-09-03T08:55:25.976Z,44.38
2018-09-03T08:56:25.976Z,43.70
2018-09-03T08:57:25.968Z,43.62
2018-09-03T08:58:25.961Z,43.72
2018-09-03T08:59:25.959Z,42.84
2018-09-03T09:00:25.956Z,43.31
2018-09-03T09:01:25.956Z,43.21
2018-09-03T09:02:25.947Z,43.90
2018-09-03T09:03:25.947Z,43.80
2018-09-03T09:04:25.942Z,43.80
2018-09-03T09:05:25.936Z,43.31
2018-09-03T09:06:25.931Z,43.51
2018-09-03T09:07:25.932Z,44.09
2018-09-03T09:08:25.925Z,42.43
2018-09-03T09:09:25.921Z,43.80
2018-09-03T09:10:25.916Z,43.21
2018-09-03T09:11:25.914Z,43.31
2018-09-03T09:12:25.917Z,42.65
2018-09-03T09:13:25.956Z,41.98
2018-09-03T09:14:25.900Z,42.35
2018-09-03T09:15:25.898Z,42.65
2018-09-03T09:16:25.895Z,42.55
2018-09-03T09:17:25.943Z,42.15
2018-09-03T09:18:25.888Z,41.96
2018-09-03T09:19:25.884Z,42.27
2018-09-03T09:20:25.877Z,42.47
2018-09-03T09:21:25.880Z,41.49
2018-09-03T09:22:25.869Z,41.11
2018-09-03T09:23:25.868Z,40.72
2018-09-03T09:24:25.935Z,40.82
2018-09-03T09:25:25.860Z,41.71
2018-09-03T09:26:25.857Z,42.00
2018-09-03T09:27:25.852Z,40.82
2018-09-03T09:28:25.847Z,42.68
2018-09-03T09:29:25.847Z,41.33
2018-09-03T09:30:25.845Z,40.96
2018-09-03T09:31:25.840Z,39.47
2018-09-03T09:32:25.833Z,40.23
2018-09-03T09:33:25.829Z,40.13
2018-09-03T09:34:25.826Z,41.03
2018-09-03T09:35:25.831Z,41.63
2018-09-03T09:36:25.818Z,39.66
2018-09-03T09:37:25.813Z,40.35
2018-09-03T09:38:25.809Z,40.55
2018-09-03T09:39:25.806Z,39.76
2018-09-03T09:40:25.804Z,39.66
2018-09-03T09:41:25.803Z,39.58
2018-09-03T09:42:25.796Z,39.98
2018-09-03T09:43:25.791Z,39.80
2018-09-03T09:44:25.787Z,38.42
2018-09-03T09:45:25.784Z,38.42
2018-09-03T09:46:25.780Z,37.52
2018-09-03T09:47:25.777Z,38.40
2018-09-03T09:48:25.774Z,38.90
2018-09-03T09:49:25.771Z,38.60
2018-09-03T09:50:25.771Z,39.60
2018-09-03T09:51:25.767Z,37.24
2018-09-03T09:52:25.764Z,38.32
2018-09-03T09:53:25.768Z,38.15
2018-09-03T09:54:25.757Z,37.36
2018-09-03T09:55:25.754Z,37.38
2018-09-03T09:56:25.803Z,37.67
2018-09-03T09:57:25.745Z,36.40
2018-09-03T09:58:25.749Z,36.79
2018-09-03T09:59:25.738Z,36.51
2018-09-03T10:00:25.737Z,36.61
2018-09-03T10:01:25.739Z,36.43
2018-09-03T10:02:25.732Z,35.54
2018-09-03T10:03:25.732Z,35.66
2018-09-03T10:04:25.775Z,35.76
2018-09-03T10:05:25.725Z,34.79
2018-09-03T10:06:25.722Z,34.79
2018-09-03T10:07:25.720Z,34.10
2018-09-03T10:08:25.718Z,34.22
2018-09-03T10:09:25.718Z,34.79
2018-09-03T10:10:25.722Z,34.82
2018-09-03T10:11:25.710Z,35.24
2018-09-03T10:12:25.710Z,34.05
2018-09-03T10:13:25.707Z,34.15
2018-09-03T10:14:25.707Z,33.28
2018-09-03T10:15:25.713Z,32.47
2018-09-03T10:16:25.702Z,32.47
2018-09-03T10:17:25.700Z,32.85
2018-09-03T10:18:25.700Z,33.72
2018-09-03T10:19:25.697Z,33.94
2018-09-03T10:20:25.697Z,35.12
2018-09-03T10:21:25.701Z,34.23
2018-09-03T10:22:25.692Z,33.25
2018-09-03T10:23:25.694Z,32.37
2018-09-03T10:24:25.691Z,33.46
2018-09-03T10:25:25.691Z,32.37
2018-09-03T10:26:25.688Z,32.18
2018-09-03T10:27:25.688Z,32.47
2018-09-03T10:28:25.686Z,33.47
2018-09-03T10:29:28.509Z,32.29
2018-09-03T10:30:25.688Z,32.19
2018-09-03T10:31:25.686Z,31.99
2018-09-03T10:32:25.683Z,30.82
2018-09-03T10:33:25.685Z,32.01
2018-09-03T10:34:25.681Z,30.92
2018-09-03T10:35:25.680Z,29.72
2018-09-03T10:36:25.682Z,30.10
2018-09-03T10:37:25.682Z,30.79
2018-09-03T10:38:25.678Z,30.78
2018-09-03T10:39:25.683Z,30.99
2018-09-03T10:40:25.680Z,32.19
2018-09-03T10:41:25.683Z,31.50
2018-09-03T10:42:25.678Z,31.41
2018-09-03T10:43:25.682Z,31.41
2018-09-03T10:44:25.685Z,30.34
2018-09-03T10:45:25.679Z,29.75
2018-09-03T10:46:25.689Z,30.74
2018-09-03T10:47:25.698Z,30.33
2018-09-03T10:48:25.677Z,30.33
2018-09-03T10:49:25.680Z,30.71
2018-09-03T10:50:25.679Z,31.10
2018-09-03T10:51:25.681Z,31.20
2018-09-03T10:52:25.679Z,30.41
2018-09-03T10:53:25.714Z,30.52
2018-09-03T10:54:25.680Z,30.21
2018-09-03T10:55:25.684Z,31.41
2018-09-03T10:56:25.683Z,29.83
2018-09-03T10:57:25.682Z,30.23
2018-09-03T10:58:25.689Z,30.94
2018-09-03T10:59:25.699Z,29.95
2018-09-03T11:00:25.686Z,30.63
2018-09-03T11:01:25.684Z,31.22
2018-09-03T11:02:25.689Z,30.73
2018-09-03T11:03:25.686Z,30.94
2018-09-03T11:04:25.689Z,29.25
2018-09-03T11:05:25.696Z,29.66
2018-09-03T11:06:25.693Z,30.36
2018-09-03T11:07:25.693Z,29.77
2018-09-03T11:08:25.689Z,29.28
2018-09-03T11:09:25.698Z,30.27
2018-09-03T11:10:25.694Z,28.39
2018-09-03T11:11:25.692Z,29.38
2018-09-03T11:12:25.710Z,29.10
2018-09-03T11:13:25.703Z,28.49
2018-09-03T11:14:25.697Z,30.08
2018-09-03T11:15:25.703Z,29.39
2018-09-03T11:16:25.702Z,28.22
2018-09-03T11:17:25.702Z,28.23
2018-09-03T11:18:25.702Z,27.14
2018-09-03T11:19:25.712Z,27.34
2018-09-03T11:20:25.706Z,27.04
2018-09-03T11:21:25.930Z,27.15
2018-09-03T11:22:25.832Z,27.26
2018-09-03T11:23:25.709Z,27.46
2018-09-03T11:24:25.710Z,27.46
2018-09-03T11:25:25.711Z,27.78
2018-09-03T11:26:25.713Z,26.79
2018-09-03T11:27:25.716Z,27.28
2018-09-03T11:28:25.716Z,27.28
2018-09-03T11:29:25.742Z,27.27
2018-09-03T11:30:25.718Z,26.80
2018-09-03T11:31:25.722Z,26.22
2018-09-03T11:32:25.725Z,25.90
2018-09-03T11:33:25.726Z,27.04
2018-09-03T11:34:25.725Z,28.31
2018-09-03T11:35:25.726Z,27.92
2018-09-03T11:36:25.731Z,27.63
2018-09-03T11:37:25.732Z,27.60
2018-09-03T11:38:25.735Z,28.88
2018-09-03T11:39:25.737Z,28.48
2018-09-03T11:40:25.735Z,28.30
2018-09-03T11:41:25.738Z,27.11
2018-09-03T11:42:25.757Z,28.03
2018-09-03T11:43:25.742Z,26.44
2018-09-03T11:44:25.741Z,26.15
2018-09-03T11:45:25.742Z,26.33
2018-09-03T11:46:25.746Z,27.11
2018-09-03T11:47:25.745Z,27.12
2018-09-03T11:48:25.748Z,27.02
2018-09-03T11:49:25.749Z,26.92
2018-09-03T11:50:25.749Z,26.90
2018-09-03T11:51:25.755Z,27.60
2018-09-03T11:52:25.753Z,27.31
2018-09-03T11:53:25.755Z,27.40
2018-09-03T11:54:25.794Z,27.11
2018-09-03T11:55:25.758Z,27.70
2018-09-03T11:56:25.759Z,28.41
2018-09-03T11:57:25.762Z,26.91
2018-09-03T11:58:25.762Z,28.78
2018-09-03T11:59:25.762Z,28.25
2018-09-03T12:00:25.822Z,29.64
2018-09-03T12:01:25.765Z,27.67
2018-09-03T12:02:25.765Z,28.37
2018-09-03T12:03:25.766Z,28.18
2018-09-03T12:04:25.776Z,28.20
2018-09-03T12:05:25.768Z,27.12
2018-09-03T12:06:25.766Z,27.33
2018-09-03T12:07:25.771Z,27.43
2018-09-03T12:08:25.771Z,27.53
2018-09-03T12:09:25.780Z,26.74
2018-09-03T12:10:25.771Z,27.15
2018-09-03T12:11:25.772Z,25.77
2018-09-03T12:12:25.778Z,26.27
2018-09-03T12:13:25.778Z,26.26
2018-09-03T12:14:25.784Z,25.74
2018-09-03T12:15:25.781Z,26.25
2018-09-03T12:16:25.784Z,25.65
2018-09-03T12:17:25.781Z,26.82
2018-09-03T12:18:25.781Z,27.33
2018-09-03T12:19:25.787Z,25.95
2018-09-03T12:20:25.784Z,26.25
2018-09-03T12:21:25.784Z,26.33
2018-09-03T12:22:25.788Z,25.84
2018-09-03T12:23:25.838Z,26.80
2018-09-03T12:24:25.789Z,28.00
2018-09-03T12:25:25.791Z,27.28
2018-09-03T12:26:25.794Z,28.17
2018-09-03T12:27:25.791Z,27.94
2018-09-03T12:28:25.794Z,28.34
2018-09-03T12:29:25.793Z,29.13
2018-09-03T12:30:25.800Z,28.17
2018-09-03T12:31:25.865Z,27.79
2018-09-03T12:32:25.794Z,27.70
2018-09-03T12:33:25.799Z,26.61
2018-09-03T12:34:25.796Z,26.73
2018-09-03T12:35:25.801Z,26.31
2018-09-03T12:36:25.798Z,26.40
2018-09-03T12:37:25.808Z,27.28
2018-09-03T12:38:25.802Z,27.56
2018-09-03T12:39:25.801Z,28.75
2018-09-03T12:40:25.801Z,28.55
2018-09-03T12:41:25.800Z,28.55
2018-09-03T12:42:25.799Z,28.75
2018-09-03T12:43:25.808Z,28.03
2018-09-03T12:44:25.845Z,29.58
2018-09-03T12:45:25.801Z,30.16
2018-09-03T12:46:25.883Z,29.37
2018-09-03T12:47:25.797Z,30.44
2018-09-03T12:48:25.807Z,32.00
2018-09-03T12:49:25.800Z,31.82
2018-09-03T12:50:25.798Z,30.73
2018-09-03T12:51:25.795Z,32.01
2018-09-03T12:52:25.804Z,32.11
2018-09-03T12:53:25.795Z,32.10
2018-09-03T12:54:25.794Z,31.79
2018-09-03T12:55:25.793Z,31.98
2018-09-03T12:56:25.788Z,32.07
2018-09-03T12:57:25.793Z,32.36
2018-09-03T12:58:25.789Z,32.93
2018-09-03T12:59:25.785Z,33.80
2018-09-03T13:00:25.782Z,33.51
2018-09-03T13:01:25.786Z,32.71
2018-09-03T13:02:25.777Z,33.58
2018-09-03T13:03:25.783Z,34.05
2018-09-03T13:04:25.829Z,34.62
2018-09-03T13:05:25.780Z,35.60
2018-09-03T13:06:25.770Z,36.49
2018-09-03T13:07:25.767Z,36.58
2018-09-03T13:08:25.766Z,35.97
2018-09-03T13:09:25.775Z,36.86
2018-09-03T13:10:25.761Z,37.35
2018-09-03T13:11:25.760Z,36.57
2018-09-03T13:12:25.761Z,36.37
2018-09-03T13:13:25.755Z,37.04
2018-09-03T13:14:25.750Z,37.63
2018-09-03T13:15:25.747Z,37.73
2018-09-03T13:16:25.744Z,38.80
2018-09-03T13:17:25.744Z,38.41
2018-09-03T13:18:25.738Z,38.90
2018-09-03T13:19:25.735Z,37.13
2018-09-03T13:20:25.746Z,36.74
2018-09-03T13:21:25.728Z,38.21
2018-09-03T13:22:25.728Z,36.94
2018-09-03T13:23:25.721Z,38.29
2018-09-03T13:24:25.721Z,37.82
2018-09-03T13:25:25.725Z,37.71
2018-09-03T13:26:25.715Z,37.71
2018-09-03T13:27:25.712Z,38.59
2018-09-03T13:28:25.709Z,38.88
2018-09-03T13:29:25.708Z,39.66
2018-09-03T13:30:25.696Z,39.74
2018-09-03T13:31:25.693Z,40.03
2018-09-03T13:32:25.690Z,39.76
2018-09-03T13:33:25.686Z,38.49
2018-09-03T13:34:25.682Z,38.39
2018-09-03T13:35:25.681Z,38.08
2018-09-03T13:36:25.675Z,37.49
2018-09-03T13:37:25.671Z,38.45
2018-09-03T13:38:25.664Z,38.84
2018-09-03T13:39:25.664Z,39.12
2018-09-03T13:40:25.664Z,39.92
2018-09-03T13:41:25.654Z,39.51
2018-09-03T13:42:25.725Z,39.29
2018-09-03T13:43:25.648Z,39.49
2018-09-03T13:44:25.644Z,39.49
2018-09-03T13:45:25.635Z,41.15
2018-09-03T13:46:25.636Z,40.76
2018-09-03T13:47:25.627Z,40.68
2018-09-03T13:48:25.623Z,40.17
2018-09-03T13:49:25.644Z,39.59
2018-09-03T13:50:25.614Z,39.80
2018-09-03T13:51:25.610Z,39.90
2018-09-03T13:52:25.607Z,39.90
2018-09-03T13:53:25.600Z,40.48
2018-09-03T13:54:25.594Z,39.51
2018-09-03T13:55:25.591Z,38.82
2018-09-03T13:56:25.644Z,38.82
2018-09-03T13:57:25.582Z,39.41
2018-09-03T13:58:25.575Z,39.61
2018-09-03T13:59:25.600Z,39.90
2018-09-03T14:00:25.567Z,39.80
2018-09-03T14:01:25.570Z,40.37
2018-09-03T14:02:25.556Z,40.86
2018-09-03T14:03:25.553Z,40.66
2018-09-03T14:04:25.546Z,40.56
2018-09-03T14:05:25.545Z,40.27
2018-09-03T14:06:25.537Z,39.78
2018-09-03T14:07:25.535Z,40.76
2018-09-03T14:08:25.529Z,40.76
2018-09-03T14:09:25.602Z,40.66
2018-09-03T14:10:25.521Z,40.66
2018-09-03T14:11:25.515Z,39.78
2018-09-03T14:12:25.509Z,40.27
2018-09-03T14:13:25.511Z,40.17
2018-09-03T14:14:25.519Z,39.78
2018-09-03T14:15:25.492Z,40.86
2018-09-03T14:16:25.486Z,40.76
2018-09-03T14:17:25.481Z,42.05
2018-09-03T14:18:25.475Z,40.19
2018-09-03T14:19:25.470Z,40.78
2018-09-03T14:20:25.467Z,40.39
2018-09-03T14:21:25.462Z,39.70
2018-09-03T14:22:25.455Z,39.31
2018-09-03T14:23:25.455Z,40.78
2018-09-03T14:24:25.462Z,40.09
2018-09-03T14:25:25.438Z,38.82
2018-09-03T14:26:25.435Z,38.63
2018-09-03T14:27:25.427Z,38.92
2018-09-03T14:28:25.452Z,38.82
2018-09-03T14:29:25.418Z,38.53
2018-09-03T14:30:25.411Z,39.31
2018-09-03T14:31:25.411Z,39.02
2018-09-03T14:32:25.401Z,39.41
2018-09-03T14:33:25.398Z,38.51
2018-09-03T14:34:25.414Z,39.29
2018-09-03T14:35:25.388Z,39.59
2018-09-03T14:36:25.382Z,39.88
2018-09-03T14:37:25.374Z,40.08
2018-09-03T14:38:25.368Z,39.59
2018-09-03T14:39:25.385Z,40.66
2018-09-03T14:40:25.359Z,40.86
2018-09-03T14:41:25.353Z,39.78
2018-09-03T14:42:25.346Z,40.17
2018-09-03T14:43:25.341Z,39.69
2018-09-03T14:44:25.350Z,39.59
2018-09-03T14:45:25.423Z,40.84
2018-09-03T14:46:25.325Z,40.74
2018-09-03T14:47:25.321Z,39.57
2018-09-03T14:48:25.315Z,40.25
2018-09-03T14:49:25.340Z,39.67
2018-09-03T14:50:25.308Z,40.06
2018-09-03T14:51:25.298Z,39.86
2018-09-03T14:52:25.291Z,40.74
2018-09-03T14:53:25.286Z,40.64
2018-09-03T14:54:25.290Z,39.96
2018-09-03T14:55:25.282Z,40.25
2018-09-03T14:56:25.282Z,40.64
2018-09-03T14:57:25.265Z,40.74
2018-09-03T14:58:25.262Z,40.25
2018-09-03T14:59:25.255Z,40.25
2018-09-03T15:00:25.245Z,39.47
2018-09-03T15:01:25.244Z,39.37
2018-09-03T15:02:25.316Z,39.57
2018-09-03T15:03:25.233Z,40.25
2018-09-03T15:04:25.312Z,40.16
2018-09-03T15:05:25.219Z,39.67
2018-09-03T15:06:25.215Z,40.06
2018-09-03T15:07:25.206Z,40.14
2018-09-03T15:08:25.237Z,40.72
2018-09-03T15:09:25.194Z,40.74
2018-09-03T15:10:25.189Z,40.94
2018-09-03T15:11:25.182Z,40.43
2018-09-03T15:12:25.183Z,39.84
2018-09-03T15:13:25.177Z,40.43